logo
Search for airport 
image banner adimage banner adimage banner ad
image banner ad

SHEC - Edificio Itau

Located in Las Condes, Chile

ICAO - SHEC, IATA -

Data provided by Airmate  

General information

Coordinates: S33°24'59" W70°35'37"
Elevation is 2270 feet MSL.
 
View others Airports in Santiago Metropolitan Region

Operational data

Special qualification required
Current time UTC:
Current local time:
Weather at : SCTB - Eulogio Sanchez - Tobalaba ( 6 km )
METAR: SCTB 081500Z 27004KT 6000 NSC 24/08 Q1016
View NOTAMs / SUP AIP / TFR affecting this airport [VIEW]
Communications frequencies: [VIEW]

Runways:

Airport contact information

Address: Las Condes Chile

Satellite view of SHEC